Time;durP1;ratioP1;P1;durP2;ratioP2;P2;SDS_P1;SDS_P2;PMS_P1;PMS_P2;Temp;Humidity;BMP_temperature;BMP_pressure;BME280_temperature;BME280_humidity;BME280_pressure;Samples;Min_cycle;Max_cycle;Signal;HPM_P1;HPM_P2
2023/09/15 00:01:34;;;;;;;16.30;5.20;;;12.50;99.90;;;;;;4949883;28;20505;-72
2023/09/15 00:04:04;;;;;;;14.07;4.97;;;12.50;99.90;;;;;;4909157;28;20054;-70
2023/09/15 00:06:30;;;;;;;12.45;5.18;;;12.40;99.90;;;;;;4946421;28;20070;-71
2023/09/15 00:08:57;;;;;;;13.70;5.30;;;12.40;99.90;;;;;;4904871;28;20449;-71
2023/09/15 00:11:23;;;;;;;13.52;5.55;;;12.40;99.90;;;;;;4944962;28;20059;-72
2023/09/15 00:13:50;;;;;;;14.35;5.47;;;12.30;99.90;;;;;;4915234;28;20062;-71
2023/09/15 00:16:17;;;;;;;15.27;5.40;;;12.40;99.90;;;;;;4949162;28;20051;-71
2023/09/15 00:18:43;;;;;;;14.75;5.22;;;12.30;99.90;;;;;;4910073;28;20111;-71
2023/09/15 00:21:11;;;;;;;16.88;6.03;;;12.30;99.90;;;;;;4948550;28;20062;-71
2023/09/15 00:23:37;;;;;;;15.77;5.65;;;12.30;99.90;;;;;;4918214;28;20046;-71
2023/09/15 00:26:04;;;;;;;13.02;5.60;;;12.20;99.90;;;;;;4957784;28;20051;-71
2023/09/15 00:28:30;;;;;;;13.43;5.65;;;12.20;99.90;;;;;;4914302;28;20058;-71
2023/09/15 00:31:00;;;;;;;13.75;5.70;;;12.20;99.90;;;;;;4957038;28;20046;-71
2023/09/15 00:33:26;;;;;;;14.23;5.63;;;12.10;99.90;;;;;;4912147;28;20062;-71
2023/09/15 00:35:52;;;;;;;12.30;5.28;;;12.10;99.90;;;;;;4937510;28;20046;-71
2023/09/15 00:38:18;;;;;;;13.60;5.43;;;12.10;99.90;;;;;;4911932;28;20604;-71
2023/09/15 00:40:44;;;;;;;11.38;4.50;;;12.10;99.90;;;;;;4936075;28;20535;-72
2023/09/15 00:43:10;;;;;;;13.27;4.68;;;12.10;99.90;;;;;;4917508;28;20079;-71
2023/09/15 00:45:36;;;;;;;12.32;4.85;;;12.00;99.90;;;;;;4952702;28;20070;-71
2023/09/15 00:48:05;;;;;;;13.13;4.55;;;12.00;99.90;;;;;;4913995;28;20069;-71
2023/09/15 00:50:32;;;;;;;13.27;4.35;;;12.00;99.90;;;;;;4946524;28;20506;-71
2023/09/15 00:53:12;;;;;;;12.85;4.63;;;12.00;99.90;;;;;;4900378;28;20053;-71
2023/09/15 00:55:39;;;;;;;12.90;3.90;;;12.00;99.90;;;;;;4954611;28;20136;-71
2023/09/15 00:58:11;;;;;;;12.05;4.07;;;12.00;99.90;;;;;;4914777;28;20700;-71
2023/09/15 01:00:41;;;;;;;13.23;4.22;;;11.90;99.90;;;;;;4956108;28;20063;-72
2023/09/15 01:03:08;;;;;;;11.73;3.40;;;11.90;99.90;;;;;;4909304;28;20056;-71
2023/09/15 01:05:35;;;;;;;12.90;3.80;;;11.90;99.90;;;;;;4945209;28;20051;-71
2023/09/15 01:08:03;;;;;;;12.18;4.00;;;11.90;99.90;;;;;;4907711;28;20062;-72
2023/09/15 01:10:29;;;;;;;12.10;3.67;;;11.90;99.90;;;;;;4944066;28;20054;-71
2023/09/15 01:12:57;;;;;;;10.63;3.50;;;11.80;99.90;;;;;;4923607;28;20054;-71
2023/09/15 01:15:46;;;;;;;13.13;3.75;;;11.80;99.90;;;;;;4954685;28;20051;-72
2023/09/15 01:18:33;;;;;;;11.57;3.40;;;11.80;99.90;;;;;;4913702;28;20054;-71
2023/09/15 01:21:50;;;;;;;11.27;3.50;;;11.80;99.90;;;;;;4949635;28;20589;-72
2023/09/15 01:24:22;;;;;;;12.63;3.58;;;11.80;99.90;;;;;;4910857;28;20307;-71
2023/09/15 01:27:09;;;;;;;13.07;3.75;;;11.70;99.90;;;;;;4944065;28;20437;-71
2023/09/15 01:29:56;;;;;;;13.30;3.47;;;11.70;99.90;;;;;;4889067;28;20051;-71
2023/09/15 01:32:23;;;;;;;16.33;3.70;;;11.70;99.90;;;;;;4960615;28;20054;-71
2023/09/15 01:34:51;;;;;;;10.40;3.42;;;11.70;99.90;;;;;;4905504;28;35218;-71
2023/09/15 01:37:19;;;;;;;11.90;3.17;;;11.60;99.90;;;;;;4941374;28;20052;-71
2023/09/15 01:39:46;;;;;;;9.10;3.20;;;11.60;99.90;;;;;;4906473;28;20050;-71
2023/09/15 01:42:12;;;;;;;8.63;3.35;;;11.60;99.90;;;;;;4942539;28;20043;-72
2023/09/15 01:44:38;;;;;;;10.23;3.30;;;11.60;99.90;;;;;;4918408;28;20062;-71
2023/09/15 01:47:08;;;;;;;13.30;3.63;;;11.60;99.90;;;;;;4946217;28;20415;-70
2023/09/15 01:49:35;;;;;;;12.48;3.42;;;11.50;99.90;;;;;;4889754;28;20066;-70
2023/09/15 01:52:02;;;;;;;12.82;3.78;;;11.50;99.90;;;;;;4944918;28;20059;-70
2023/09/15 01:54:29;;;;;;;12.15;3.70;;;11.50;99.90;;;;;;4907668;28;95736;-71
2023/09/15 01:56:55;;;;;;;13.27;3.47;;;11.40;99.90;;;;;;4942942;28;20048;-70
2023/09/15 01:59:21;;;;;;;14.82;3.75;;;11.40;99.90;;;;;;4908098;28;20047;-71
2023/09/15 02:01:47;;;;;;;16.08;3.45;;;11.40;99.90;;;;;;4942138;28;20066;-71
2023/09/15 02:04:13;;;;;;;12.20;3.47;;;11.40;99.90;;;;;;4919588;28;20055;-71
2023/09/15 02:06:39;;;;;;;12.02;3.35;;;11.40;99.90;;;;;;4949093;28;20062;-71
2023/09/15 02:09:05;;;;;;;12.18;3.63;;;11.40;99.90;;;;;;4917581;28;20718;-70
2023/09/15 02:11:32;;;;;;;12.75;3.58;;;11.40;99.90;;;;;;4949737;28;20055;-70
2023/09/15 02:13:58;;;;;;;11.88;3.78;;;11.30;99.90;;;;;;4916698;28;20055;-71
2023/09/15 02:16:24;;;;;;;11.98;3.30;;;11.30;99.90;;;;;;4944414;28;20058;-71
2023/09/15 02:18:50;;;;;;;11.25;3.53;;;11.30;99.90;;;;;;4916277;28;20047;-71
2023/09/15 02:21:16;;;;;;;11.85;3.58;;;11.30;99.90;;;;;;4952320;28;20055;-71
2023/09/15 02:23:42;;;;;;;10.80;3.47;;;11.30;99.90;;;;;;4912674;28;211422;-71
2023/09/15 02:26:09;;;;;;;12.18;3.58;;;11.30;99.90;;;;;;4949065;28;20047;-71
2023/09/15 02:28:35;;;;;;;11.45;3.63;;;11.20;99.90;;;;;;4914960;28;20051;-71
2023/09/15 02:31:04;;;;;;;15.13;3.65;;;11.20;99.90;;;;;;4952724;28;20051;-70
2023/09/15 02:33:31;;;;;;;11.95;3.42;;;11.20;99.90;;;;;;4916979;28;20053;-70
2023/09/15 02:35:58;;;;;;;11.45;3.60;;;11.20;99.90;;;;;;4956372;28;20055;-71
2023/09/15 02:38:24;;;;;;;10.68;3.30;;;11.20;99.90;;;;;;4914957;28;20868;-72
2023/09/15 02:40:50;;;;;;;11.80;3.88;;;11.20;99.90;;;;;;4933189;28;20054;-71
2023/09/15 02:43:16;;;;;;;11.13;3.08;;;11.10;99.90;;;;;;4912452;28;20922;-71
2023/09/15 02:45:42;;;;;;;14.65;3.60;;;11.10;99.90;;;;;;4958843;28;20055;-71
2023/09/15 02:48:08;;;;;;;12.50;3.92;;;11.10;99.90;;;;;;4906595;28;20063;-70
2023/09/15 02:50:34;;;;;;;15.57;4.13;;;11.10;99.90;;;;;;4953537;28;20058;-71
2023/09/15 02:53:00;;;;;;;15.73;3.88;;;11.10;99.90;;;;;;4903531;28;27474;-71
2023/09/15 02:55:27;;;;;;;9.18;3.50;;;11.10;99.90;;;;;;4946827;28;20055;-71
2023/09/15 02:57:53;;;;;;;12.48;3.50;;;11.00;99.90;;;;;;4914037;28;20062;-71
2023/09/15 03:00:20;;;;;;;10.93;3.63;;;11.00;99.90;;;;;;4946285;28;20066;-70
2023/09/15 03:02:47;;;;;;;12.20;3.63;;;11.00;99.90;;;;;;4913116;28;20853;-70
2023/09/15 03:05:13;;;;;;;11.85;3.75;;;11.00;99.90;;;;;;4945851;28;20062;-70
2023/09/15 03:07:40;;;;;;;11.68;3.78;;;11.00;99.90;;;;;;4912488;28;20058;-70
2023/09/15 03:10:07;;;;;;;12.88;4.30;;;10.90;99.90;;;;;;4961178;28;20074;-71
2023/09/15 03:12:34;;;;;;;13.75;3.50;;;10.90;99.90;;;;;;4907149;28;20066;-71
2023/09/15 03:15:05;;;;;;;10.48;3.42;;;10.90;99.90;;;;;;4960034;28;20066;-72
2023/09/15 03:17:33;;;;;;;13.48;3.80;;;10.90;99.90;;;;;;4916485;28;22383;-70
2023/09/15 03:19:59;;;;;;;12.05;3.72;;;10.90;99.90;;;;;;4944708;28;20047;-70
2023/09/15 03:22:27;;;;;;;10.75;3.97;;;10.80;99.90;;;;;;4943253;28;20098;-70
2023/09/15 03:24:55;;;;;;;13.30;3.60;;;10.90;99.90;;;;;;4921381;28;20065;-70
2023/09/15 03:27:21;;;;;;;13.75;3.63;;;10.90;99.90;;;;;;4944749;28;20521;-72
2023/09/15 03:29:47;;;;;;;13.90;4.47;;;10.80;99.90;;;;;;4923344;28;20043;-71
2023/09/15 03:32:13;;;;;;;13.23;3.88;;;10.80;99.90;;;;;;4946912;28;20062;-71
2023/09/15 03:34:39;;;;;;;14.20;3.75;;;10.80;99.90;;;;;;4921409;28;20062;-72
2023/09/15 03:37:05;;;;;;;12.20;3.80;;;10.80;99.90;;;;;;4951498;28;20054;-71
2023/09/15 03:39:31;;;;;;;13.02;3.60;;;10.80;99.90;;;;;;4912630;28;20055;-71
2023/09/15 03:41:57;;;;;;;14.68;3.92;;;10.80;99.90;;;;;;4950880;28;20101;-70
2023/09/15 03:44:23;;;;;;;13.70;3.30;;;10.70;99.90;;;;;;4922026;28;20050;-71
2023/09/15 03:46:50;;;;;;;10.85;3.72;;;10.80;99.90;;;;;;4948930;28;20047;-71
2023/09/15 03:49:16;;;;;;;12.45;3.65;;;10.70;99.90;;;;;;4920296;28;20522;-71
2023/09/15 03:51:42;;;;;;;15.85;3.80;;;10.70;99.90;;;;;;4947068;28;20200;-71
2023/09/15 03:54:08;;;;;;;10.00;3.28;;;10.70;99.90;;;;;;4884728;28;20062;-70
2023/09/15 03:56:34;;;;;;;12.27;3.40;;;10.70;99.90;;;;;;4948188;28;20128;-70
2023/09/15 03:59:00;;;;;;;11.70;3.45;;;10.60;99.90;;;;;;4922695;28;20061;-70
2023/09/15 04:01:26;;;;;;;10.02;3.40;;;10.60;99.90;;;;;;4946344;28;20413;-70
2023/09/15 04:03:53;;;;;;;10.80;3.30;;;10.60;99.90;;;;;;4921089;28;20095;-71
2023/09/15 04:06:19;;;;;;;12.20;4.00;;;10.60;99.90;;;;;;4953386;28;20601;-70
2023/09/15 04:08:46;;;;;;;12.88;4.00;;;10.60;99.90;;;;;;4921768;28;20042;-70
2023/09/15 04:11:12;;;;;;;9.73;3.40;;;10.60;99.90;;;;;;4955548;28;20051;-70
2023/09/15 04:13:38;;;;;;;13.15;3.70;;;10.60;99.90;;;;;;4917665;28;20042;-71
2023/09/15 04:16:04;;;;;;;13.15;3.67;;;10.60;99.90;;;;;;4954913;28;21470;-70
2023/09/15 04:18:33;;;;;;;14.55;3.72;;;10.60;99.90;;;;;;4913102;28;20059;-71
2023/09/15 04:20:59;;;;;;;13.57;3.50;;;10.50;99.90;;;;;;4953542;28;20055;-72
2023/09/15 04:23:25;;;;;;;11.48;3.53;;;10.50;99.90;;;;;;4916604;28;20058;-71
2023/09/15 04:25:52;;;;;;;13.30;3.70;;;10.50;99.90;;;;;;4928666;28;20078;-71
2023/09/15 04:28:18;;;;;;;13.02;3.83;;;10.40;99.90;;;;;;4915990;28;20114;-71
2023/09/15 04:30:44;;;;;;;14.48;3.97;;;10.50;99.90;;;;;;4955956;28;20708;-70
2023/09/15 04:33:10;;;;;;;15.45;3.45;;;10.40;99.90;;;;;;4916120;28;20055;-71
2023/09/15 04:35:36;;;;;;;9.50;3.70;;;10.40;99.90;;;;;;4958206;28;20510;-70
2023/09/15 04:38:02;;;;;;;12.73;3.78;;;10.40;99.90;;;;;;4915541;28;20062;-71
2023/09/15 04:40:28;;;;;;;11.15;3.78;;;10.40;99.90;;;;;;4928416;28;20047;-71
2023/09/15 04:42:55;;;;;;;12.30;3.95;;;10.30;99.90;;;;;;4914066;28;20429;-70
2023/09/15 04:45:21;;;;;;;12.48;3.85;;;10.30;99.90;;;;;;4958300;28;20050;-70
2023/09/15 04:47:47;;;;;;;12.75;4.40;;;10.30;99.90;;;;;;4911219;28;20059;-72
2023/09/15 04:50:13;;;;;;;11.95;3.95;;;10.40;99.90;;;;;;4932676;28;20050;-71
2023/09/15 04:52:39;;;;;;;13.87;3.87;;;10.30;99.90;;;;;;4898271;28;109238;-70
2023/09/15 04:55:05;;;;;;;10.70;3.70;;;10.30;99.90;;;;;;4920898;29;20055;-71
2023/09/15 04:57:32;;;;;;;12.85;3.78;;;10.30;99.90;;;;;;4921663;28;20051;-70
2023/09/15 04:59:58;;;;;;;11.63;3.67;;;10.30;99.90;;;;;;4952189;28;20030;-72
2023/09/15 05:02:24;;;;;;;11.80;4.20;;;10.30;99.90;;;;;;4963264;28;20066;-71
2023/09/15 05:04:54;;;;;;;11.43;4.13;;;10.30;99.90;;;;;;4925270;28;20051;-71
2023/09/15 05:07:20;;;;;;;12.32;4.20;;;10.40;99.90;;;;;;4950628;28;20549;-71
2023/09/15 05:09:46;;;;;;;12.95;4.32;;;10.30;99.90;;;;;;4924050;28;20057;-72
2023/09/15 05:12:15;;;;;;;12.95;4.43;;;10.30;99.90;;;;;;4947370;28;20059;-71
2023/09/15 05:14:42;;;;;;;12.82;4.40;;;10.30;99.90;;;;;;4913498;28;20090;-72
2023/09/15 05:17:08;;;;;;;12.20;3.80;;;10.30;99.90;;;;;;4950328;28;20051;-70
2023/09/15 05:19:37;;;;;;;14.38;4.28;;;10.30;99.90;;;;;;4931822;28;20051;-70
2023/09/15 05:22:17;;;;;;;12.77;4.47;;;10.30;99.90;;;;;;4960214;28;20054;-72
2023/09/15 05:24:43;;;;;;;12.75;4.22;;;10.30;99.90;;;;;;4936039;28;20050;-70
2023/09/15 05:27:09;;;;;;;12.18;4.07;;;10.30;99.90;;;;;;4957482;28;20070;-70
2023/09/15 05:29:36;;;;;;;13.73;4.40;;;10.30;99.90;;;;;;4925917;28;20055;-71
2023/09/15 05:32:02;;;;;;;14.18;4.63;;;10.30;99.90;;;;;;4957803;28;20062;-71
2023/09/15 05:34:32;;;;;;;12.27;4.70;;;10.30;99.90;;;;;;4927583;28;20131;-71
2023/09/15 05:36:58;;;;;;;13.20;4.30;;;10.40;99.90;;;;;;4935505;28;20047;-70
2023/09/15 05:39:25;;;;;;;15.55;4.18;;;10.40;99.90;;;;;;4934044;28;20050;-70
2023/09/15 05:41:51;;;;;;;14.63;4.63;;;10.40;99.90;;;;;;4955678;28;20062;-71
2023/09/15 05:44:17;;;;;;;9.70;4.20;;;10.40;99.90;;;;;;4926282;28;20046;-71
2023/09/15 05:46:44;;;;;;;13.15;4.55;;;10.40;99.90;;;;;;4945021;28;20532;-70
2023/09/15 05:49:10;;;;;;;12.18;4.45;;;10.50;99.90;;;;;;4921714;28;20767;-70
2023/09/15 05:51:36;;;;;;;12.02;4.13;;;10.50;99.90;;;;;;4951981;28;20517;-72
2023/09/15 05:54:02;;;;;;;15.45;4.40;;;10.50;99.90;;;;;;4905225;28;29837;-71
2023/09/15 05:56:29;;;;;;;11.55;3.83;;;10.60;99.90;;;;;;4950470;28;20070;-71
2023/09/15 05:58:55;;;;;;;9.85;4.20;;;10.60;99.90;;;;;;4919068;28;20070;-71
2023/09/15 06:01:21;;;;;;;15.00;4.80;;;10.60;99.90;;;;;;4951187;28;20036;-71
2023/09/15 06:03:50;;;;;;;10.65;4.20;;;10.70;99.90;;;;;;4890257;28;20051;-70
2023/09/15 06:06:16;;;;;;;12.93;4.32;;;10.70;99.90;;;;;;4939233;28;20051;-71
2023/09/15 06:08:43;;;;;;;11.50;4.28;;;10.70;99.90;;;;;;4915824;28;20042;-71
2023/09/15 06:11:09;;;;;;;11.88;4.10;;;10.80;99.90;;;;;;4942965;28;20047;-71
2023/09/15 06:13:37;;;;;;;10.95;4.53;;;10.80;99.90;;;;;;4917209;28;20065;-70
2023/09/15 06:16:06;;;;;;;11.35;4.63;;;10.90;99.90;;;;;;4950978;28;20051;-71
2023/09/15 06:18:33;;;;;;;16.80;4.85;;;11.00;99.90;;;;;;4907106;28;20537;-70
2023/09/15 06:21:00;;;;;;;14.32;4.10;;;11.00;99.90;;;;;;4949230;28;20062;-71
2023/09/15 06:23:26;;;;;;;11.38;4.70;;;11.10;99.90;;;;;;4915347;28;20067;-71
2023/09/15 06:25:52;;;;;;;14.63;4.70;;;11.10;99.90;;;;;;4944443;28;20036;-71
2023/09/15 06:28:18;;;;;;;13.57;4.72;;;11.20;99.90;;;;;;4907467;28;20055;-70
2023/09/15 06:30:44;;;;;;;12.93;4.03;;;11.40;99.90;;;;;;4947432;28;20059;-71
2023/09/15 06:33:10;;;;;;;12.95;4.60;;;11.40;99.90;;;;;;4913528;28;20548;-71
2023/09/15 06:35:37;;;;;;;13.52;4.28;;;11.50;99.90;;;;;;4942488;28;20051;-71
2023/09/15 06:38:06;;;;;;;14.27;4.60;;;11.60;99.90;;;;;;4909432;28;40394;-71
2023/09/15 06:40:35;;;;;;;11.98;4.80;;;11.70;99.90;;;;;;4947851;28;20059;-71
2023/09/15 06:43:04;;;;;;;14.50;4.18;;;12.60;99.90;;;;;;4906743;28;20062;-71
2023/09/15 06:45:31;;;;;;;12.18;4.13;;;13.60;99.90;;;;;;4944652;28;20422;-71
2023/09/15 06:48:01;;;;;;;10.57;3.70;;;14.30;99.90;;;;;;4908705;28;20047;-71
2023/09/15 06:50:28;;;;;;;;;;;15.00;99.90;;;;;;4951480;28;20478;-68
2023/09/15 06:52:55;;;;;;;11.88;3.30;;;15.60;99.90;;;;;;4896243;28;19931;-69
2023/09/15 06:55:21;;;;;;;12.55;3.53;;;16.00;99.90;;;;;;4955694;28;20055;-69
2023/09/15 06:57:47;;;;;;;12.15;3.40;;;15.80;99.90;;;;;;4909537;28;20064;-70
2023/09/15 07:00:13;;;;;;;12.50;3.20;;;15.90;99.90;;;;;;4953665;28;20052;-70
2023/09/15 07:02:39;;;;;;;11.40;3.22;;;16.40;99.90;;;;;;4907125;28;20062;-70
2023/09/15 07:05:05;;;;;;;12.13;3.03;;;16.80;99.90;;;;;;4954684;28;20063;-69
2023/09/15 07:07:31;;;;;;;10.82;3.08;;;17.30;99.90;;;;;;4919151;28;20042;-69
2023/09/15 07:09:57;;;;;;;8.70;2.60;;;17.60;99.90;;;;;;4956869;28;20565;-70
2023/09/15 07:12:24;;;;;;;10.82;2.45;;;17.90;99.90;;;;;;4946474;28;20058;-70
2023/09/15 07:14:50;;;;;;;12.95;3.30;;;18.10;99.90;;;;;;4909477;28;20063;-70
2023/09/15 07:17:17;;;;;;;9.75;2.45;;;18.40;99.90;;;;;;4947388;28;20067;-70
2023/09/15 07:19:45;;;;;;;11.68;2.83;;;18.70;99.90;;;;;;4892461;28;20514;-70
2023/09/15 07:22:11;;;;;;;11.85;2.60;;;19.10;99.90;;;;;;4948224;28;20059;-69
2023/09/15 07:24:41;;;;;;;11.20;2.80;;;19.50;99.90;;;;;;4925282;28;20066;-70
2023/09/15 07:27:10;;;;;;;10.82;2.70;;;19.70;99.90;;;;;;4946240;28;20062;-71
2023/09/15 07:29:37;;;;;;;9.70;2.38;;;20.00;99.90;;;;;;4910741;28;20054;-69
2023/09/15 07:32:04;;;;;;;9.90;2.72;;;20.30;99.90;;;;;;4948609;28;20058;-70
2023/09/15 07:34:30;;;;;;;11.55;2.60;;;20.60;99.90;;;;;;4895718;28;20477;-70
2023/09/15 07:36:57;;;;;;;8.80;2.50;;;20.90;99.90;;;;;;4945020;28;20059;-70
2023/09/15 07:39:23;;;;;;;10.25;2.30;;;21.10;99.40;;;;;;4913331;28;20058;-71
2023/09/15 07:41:49;;;;;;;9.65;2.50;;;21.00;97.90;;;;;;4950448;28;20070;-70
2023/09/15 07:44:18;;;;;;;8.82;2.40;;;21.00;98.00;;;;;;4925470;28;20500;-71
2023/09/15 07:46:44;;;;;;;12.05;2.42;;;21.20;97.60;;;;;;4952675;28;20059;-70
2023/09/15 07:49:11;;;;;;;8.43;2.25;;;21.50;98.00;;;;;;4908225;28;20544;-70
2023/09/15 07:51:37;;;;;;;10.40;2.33;;;22.00;97.90;;;;;;4950036;28;20062;-71
2023/09/15 07:54:03;;;;;;;9.18;2.40;;;22.30;97.00;;;;;;4909801;28;30945;-71
2023/09/15 07:56:29;;;;;;;10.52;2.35;;;22.60;96.60;;;;;;4950460;28;20043;-70
2023/09/15 07:58:55;;;;;;;9.32;2.33;;;22.80;95.80;;;;;;4910805;28;20804;-70
2023/09/15 08:01:21;;;;;;;11.38;2.50;;;22.80;95.40;;;;;;4950599;28;20069;-70
2023/09/15 08:03:47;;;;;;;8.82;2.25;;;23.10;95.60;;;;;;4909689;28;20051;-70
2023/09/15 08:06:13;;;;;;;9.82;2.35;;;23.40;95.20;;;;;;4948984;28;20057;-71
2023/09/15 08:08:39;;;;;;;11.32;2.50;;;23.50;94.40;;;;;;4914049;28;20118;-70
2023/09/15 08:11:05;;;;;;;9.10;2.20;;;23.60;94.60;;;;;;4928122;29;20066;-71
2023/09/15 08:13:31;;;;;;;8.85;2.38;;;23.90;93.90;;;;;;4910744;28;20434;-71
2023/09/15 08:15:58;;;;;;;10.05;2.30;;;24.00;93.90;;;;;;4954326;28;20059;-70
2023/09/15 08:18:24;;;;;;;21.50;3.60;;;24.20;93.30;;;;;;4906625;28;20564;-70
2023/09/15 08:20:50;;;;;;;12.25;2.88;;;24.40;93.20;;;;;;4943067;28;20051;-70
2023/09/15 08:23:16;;;;;;;8.00;2.03;;;24.70;93.40;;;;;;4910072;28;20102;-70
2023/09/15 08:25:43;;;;;;;9.23;2.03;;;24.90;92.70;;;;;;4945738;28;20325;-71
2023/09/15 08:28:09;;;;;;;8.63;1.80;;;25.00;92.50;;;;;;4913966;28;20055;-71
2023/09/15 08:30:35;;;;;;;9.95;2.20;;;25.10;92.40;;;;;;4942340;28;20063;-70
2023/09/15 08:33:05;;;;;;;10.18;2.38;;;25.40;92.10;;;;;;4913394;28;20058;-69
2023/09/15 08:35:32;;;;;;;9.18;2.17;;;25.70;91.80;;;;;;4959259;28;20042;-70
2023/09/15 08:37:58;;;;;;;7.47;1.98;;;26.10;91.60;;;;;;4916349;28;20038;-70
2023/09/15 08:40:37;;;;;;;15.85;3.28;;;26.30;91.40;;;;;;4957265;28;20055;-69
2023/09/15 08:43:05;;;;;;;11.00;2.30;;;26.50;91.00;;;;;;4914835;28;20050;-70
2023/09/15 08:45:33;;;;;;;10.85;2.70;;;26.70;90.70;;;;;;4946578;28;20043;-70
2023/09/15 08:48:05;;;;;;;10.38;2.42;;;26.90;90.70;;;;;;4906765;28;20052;-71
2023/09/15 08:50:32;;;;;;;26.63;4.43;;;26.80;90.00;;;;;;4945954;28;20055;-71
2023/09/15 08:53:01;;;;;;;8.73;2.03;;;26.90;90.00;;;;;;4913767;28;161349;-71
2023/09/15 08:55:28;;;;;;;8.57;2.30;;;27.00;89.80;;;;;;4960995;28;20515;-69
2023/09/15 08:57:56;;;;;;;9.07;2.30;;;27.10;89.10;;;;;;4917430;28;20065;-72
2023/09/15 09:00:23;;;;;;;9.00;2.38;;;27.30;89.10;;;;;;4961250;28;20074;-71
2023/09/15 09:02:51;;;;;;;8.65;2.00;;;27.50;88.30;;;;;;4910910;28;21682;-71
2023/09/15 09:05:18;;;;;;;12.10;2.17;;;27.60;87.50;;;;;;4944351;28;20074;-70
2023/09/15 09:07:46;;;;;;;9.30;2.13;;;27.70;87.40;;;;;;4910880;28;22140;-70
2023/09/15 09:10:12;;;;;;;9.27;2.17;;;28.20;87.50;;;;;;4946948;28;20509;-71
2023/09/15 09:12:39;;;;;;;8.82;2.10;;;28.40;86.60;;;;;;4910057;28;20055;-70
2023/09/15 09:15:06;;;;;;;8.27;2.17;;;28.80;85.40;;;;;;4959669;28;20054;-72
2023/09/15 09:17:32;;;;;;;9.80;2.38;;;28.90;84.80;;;;;;4911716;28;20082;-72
2023/09/15 09:19:58;;;;;;;9.25;2.30;;;29.00;83.70;;;;;;4959463;28;20532;-71
2023/09/15 09:22:25;;;;;;;11.25;2.08;;;29.20;83.70;;;;;;4947518;28;20051;-71
2023/09/15 09:24:55;;;;;;;10.43;2.50;;;29.40;83.10;;;;;;4918510;28;20027;-71
2023/09/15 09:27:21;;;;;;;;;;;29.50;81.80;;;;;;4951316;28;20070;-71
2023/09/15 09:29:48;;;;;;;8.57;1.95;;;29.40;81.20;;;;;;4929301;28;19926;-70
2023/09/15 09:32:14;;;;;;;9.32;2.25;;;29.40;82.70;;;;;;4963200;28;20521;-71
2023/09/15 09:34:41;;;;;;;8.25;2.00;;;29.60;82.70;;;;;;4923172;28;20062;-71
2023/09/15 09:37:07;;;;;;;10.32;2.30;;;30.00;81.70;;;;;;4946845;28;20136;-71
2023/09/15 09:39:34;;;;;;;11.55;2.67;;;30.10;80.20;;;;;;4904501;28;20059;-72
2023/09/15 09:42:02;;;;;;;9.90;2.38;;;30.30;79.40;;;;;;4949004;28;20059;-72
2023/09/15 09:44:28;;;;;;;9.07;2.85;;;30.60;79.20;;;;;;4926339;28;20049;-70
2023/09/15 09:46:56;;;;;;;9.38;2.60;;;30.50;78.10;;;;;;4945431;28;20689;-73
2023/09/15 09:49:23;;;;;;;9.68;2.97;;;31.00;78.90;;;;;;4920384;28;20509;-72
2023/09/15 09:51:53;;;;;;;9.05;2.60;;;31.20;76.90;;;;;;4948255;28;20444;-72
2023/09/15 09:54:19;;;;;;;10.52;2.35;;;31.30;76.70;;;;;;4909449;28;167388;-71
2023/09/15 09:56:49;;;;;;;13.25;2.85;;;31.50;77.00;;;;;;4946015;28;20062;-71
2023/09/15 09:59:15;;;;;;;;;;;31.20;75.10;;;;;;4914482;28;21015;-72
2023/09/15 10:01:41;;;;;;;8.75;2.45;;;31.40;74.20;;;;;;4949654;28;19922;-72
2023/09/15 10:04:08;;;;;;;8.63;2.20;;;31.10;74.00;;;;;;4922433;28;20046;-71
2023/09/15 10:06:37;;;;;;;6.97;2.08;;;30.90;73.80;;;;;;4962212;28;20051;-72
2023/09/15 10:09:07;;;;;;;8.82;2.38;;;31.10;75.20;;;;;;4915660;28;21199;-72
2023/09/15 10:11:34;;;;;;;8.38;2.28;;;31.40;74.20;;;;;;4948958;28;20055;-72
2023/09/15 10:14:02;;;;;;;9.60;2.22;;;31.60;74.50;;;;;;4920108;28;20054;-71
2023/09/15 10:16:32;;;;;;;8.05;2.28;;;31.40;73.60;;;;;;4948928;28;20059;-71
2023/09/15 10:19:02;;;;;;;10.07;2.47;;;31.20;73.50;;;;;;4904660;28;20051;-72
2023/09/15 10:21:29;;;;;;;8.40;2.00;;;30.70;72.50;;;;;;4949234;28;20641;-72
2023/09/15 10:24:21;;;;;;;8.65;2.17;;;30.50;73.40;;;;;;4900604;28;20063;-71
2023/09/15 10:26:47;;;;;;;9.05;2.38;;;30.90;72.90;;;;;;4946715;28;20059;-72
2023/09/15 10:29:14;;;;;;;9.35;2.20;;;31.20;74.50;;;;;;4890548;28;20088;-72
2023/09/15 10:31:52;;;;;;;10.05;2.53;;;31.50;74.30;;;;;;4945280;28;20078;-73
2023/09/15 10:34:18;;;;;;;10.43;2.33;;;31.90;72.90;;;;;;4906816;28;20043;-73
2023/09/15 10:36:45;;;;;;;10.82;2.22;;;31.90;73.60;;;;;;4943992;28;20058;-72
2023/09/15 10:39:15;;;;;;;9.52;2.40;;;31.60;72.60;;;;;;4909268;28;20454;-72
2023/09/15 10:41:42;;;;;;;9.80;2.22;;;31.50;72.40;;;;;;4955566;28;20047;-73
2023/09/15 10:44:08;;;;;;;10.10;2.47;;;31.70;73.30;;;;;;4909559;28;20411;-73
2023/09/15 10:46:36;;;;;;;8.57;2.33;;;31.60;72.70;;;;;;4948966;28;20070;-70
2023/09/15 10:49:14;;;;;;;11.68;2.38;;;31.70;72.30;;;;;;4924653;28;20082;-71
2023/09/15 10:51:57;;;;;;;9.77;2.63;;;31.20;72.40;;;;;;4954064;28;20074;-74
2023/09/15 10:54:34;;;;;;;8.18;2.30;;;31.30;71.80;;;;;;4879554;28;225541;-72
2023/09/15 10:57:01;;;;;;;8.82;2.50;;;31.20;73.50;;;;;;4952933;28;20412;-71
2023/09/15 10:59:27;;;;;;;8.50;2.45;;;31.50;72.90;;;;;;4903390;28;20063;-73
2023/09/15 11:01:55;;;;;;;8.00;2.15;;;31.40;71.80;;;;;;4958451;28;20047;-73
2023/09/15 11:04:22;;;;;;;8.05;2.28;;;31.30;72.50;;;;;;4887965;28;20047;-72
2023/09/15 11:06:50;;;;;;;8.90;2.40;;;31.00;72.40;;;;;;4953884;28;20043;-71
2023/09/15 11:09:18;;;;;;;8.88;2.20;;;30.90;71.80;;;;;;4920469;28;20066;-73
2023/09/15 11:11:51;;;;;;;8.95;2.30;;;31.00;72.30;;;;;;4957882;28;20066;-74
2023/09/15 11:14:20;;;;;;;7.63;2.03;;;30.80;72.40;;;;;;4912915;28;20057;-73
2023/09/15 11:16:50;;;;;;;9.25;2.45;;;31.20;72.30;;;;;;4953033;28;20055;-72
2023/09/15 11:19:18;;;;;;;8.27;2.10;;;30.80;72.00;;;;;;4925389;28;20077;-73
2023/09/15 11:21:47;;;;;;;8.98;2.35;;;30.90;72.10;;;;;;4935407;28;20062;-72
2023/09/15 11:24:15;;;;;;;11.05;2.60;;;31.40;72.10;;;;;;4914098;28;20077;-74
2023/09/15 11:26:48;;;;;;;9.23;2.00;;;31.80;72.40;;;;;;4953209;28;20060;-73
2023/09/15 11:29:15;;;;;;;7.25;2.00;;;32.20;72.10;;;;;;4912921;28;20050;-73
2023/09/15 11:31:43;;;;;;;8.18;2.20;;;32.30;70.20;;;;;;4956394;28;20059;-73
2023/09/15 11:34:13;;;;;;;8.82;2.15;;;32.30;71.30;;;;;;4922090;28;20039;-75
2023/09/15 11:36:41;;;;;;;8.00;1.88;;;32.20;71.10;;;;;;4951930;28;20057;-74
2023/09/15 11:39:10;;;;;;;9.68;2.00;;;32.00;70.50;;;;;;4921824;28;20063;-73
2023/09/15 11:41:38;;;;;;;9.57;2.33;;;32.00;70.80;;;;;;4953426;28;20078;-74
2023/09/15 11:44:08;;;;;;;8.52;2.38;;;31.80;70.20;;;;;;4923330;28;20072;-72
2023/09/15 11:46:37;;;;;;;8.20;2.10;;;32.00;71.30;;;;;;4952890;28;20062;-73
2023/09/15 11:49:04;;;;;;;7.03;1.92;;;31.80;70.50;;;;;;4890198;28;20055;-73
2023/09/15 11:51:31;;;;;;;7.45;1.92;;;31.90;70.90;;;;;;4942556;28;20074;-74
2023/09/15 11:53:58;;;;;;;8.13;2.03;;;31.60;71.00;;;;;;4887682;28;166083;-73
2023/09/15 11:56:28;;;;;;;8.20;1.95;;;31.80;70.30;;;;;;4944514;28;20063;-73
2023/09/15 11:58:54;;;;;;;8.80;2.22;;;31.50;70.80;;;;;;4913348;28;20664;-74
2023/09/15 12:01:21;;;;;;;8.48;1.80;;;31.60;71.50;;;;;;4941448;28;20051;-72
2023/09/15 12:03:49;;;;;;;8.48;2.13;;;32.10;71.50;;;;;;4917862;28;20066;-73
2023/09/15 12:06:19;;;;;;;9.38;2.10;;;32.00;70.60;;;;;;4949255;28;20522;-73
2023/09/15 12:08:47;;;;;;;7.82;2.00;;;31.80;70.90;;;;;;4916205;28;20610;-73
2023/09/15 12:11:14;;;;;;;8.35;1.92;;;31.80;69.90;;;;;;4944629;28;20040;-73
2023/09/15 12:13:41;;;;;;;7.85;1.95;;;32.20;70.50;;;;;;4920660;28;20054;-76
2023/09/15 12:16:17;;;;;;;9.50;2.22;;;32.60;70.60;;;;;;4960344;28;20073;-75
2023/09/15 12:18:46;;;;;;;8.75;2.30;;;33.00;68.90;;;;;;4916469;28;20059;-74
2023/09/15 12:21:14;;;;;;;8.63;2.07;;;33.30;69.50;;;;;;4947523;28;20062;-75
2023/09/15 12:23:41;;;;;;;7.93;1.80;;;33.60;69.90;;;;;;4891379;29;20074;-74
2023/09/15 12:26:08;;;;;;;8.18;2.17;;;33.70;69.10;;;;;;4950895;28;20047;-75
2023/09/15 12:28:35;;;;;;;8.77;1.98;;;34.00;68.70;;;;;;4910902;28;20066;-75
2023/09/15 12:31:01;;;;;;;7.63;1.98;;;33.90;69.00;;;;;;4945075;28;20051;-74
2023/09/15 12:33:30;;;;;;;9.52;2.20;;;33.90;68.50;;;;;;4924031;28;20057;-74
2023/09/15 12:36:02;;;;;;;8.13;1.70;;;33.60;69.00;;;;;;4959678;28;20221;-75
2023/09/15 12:38:28;;;;;;;7.10;1.88;;;33.60;69.10;;;;;;4894118;28;20047;-73
2023/09/15 12:40:54;;;;;;;9.30;2.13;;;33.60;69.20;;;;;;4955346;28;20067;-72
2023/09/15 12:43:20;;;;;;;9.00;2.08;;;33.40;68.30;;;;;;4911580;28;20438;-74